sensor_id;sensor_type;location;lat;lon;timestamp;pressure;altitude;pressure_sealevel;temperature;humidity
60920;BME280;59039;52.108;19.942;2023-05-14T00:01:53;101270.08;;;13.32;56.99
60920;BME280;59039;52.108;19.942;2023-05-14T00:04:18;101269.45;;;13.27;56.50
60920;BME280;59039;52.108;19.942;2023-05-14T00:06:44;101266.59;;;13.22;56.25
60920;BME280;59039;52.108;19.942;2023-05-14T00:09:09;101270.05;;;13.19;56.42
60920;BME280;59039;52.108;19.942;2023-05-14T00:11:35;101270.74;;;13.13;56.48
60920;BME280;59039;52.108;19.942;2023-05-14T00:14:00;101275.24;;;13.08;55.66
60920;BME280;59039;52.108;19.942;2023-05-14T00:16:25;101270.25;;;13.00;55.84
60920;BME280;59039;52.108;19.942;2023-05-14T00:18:51;101272.26;;;12.92;56.16
60920;BME280;59039;52.108;19.942;2023-05-14T00:21:16;101272.55;;;12.88;56.85
60920;BME280;59039;52.108;19.942;2023-05-14T00:23:44;101271.75;;;12.83;56.84
60920;BME280;59039;52.108;19.942;2023-05-14T00:26:10;101268.51;;;12.75;56.68
60920;BME280;59039;52.108;19.942;2023-05-14T00:28:35;101268.75;;;12.68;57.85
60920;BME280;59039;52.108;19.942;2023-05-14T00:31:00;101269.52;;;12.64;57.20
60920;BME280;59039;52.108;19.942;2023-05-14T00:33:26;101266.91;;;12.59;57.04
60920;BME280;59039;52.108;19.942;2023-05-14T00:35:54;101264.97;;;12.55;57.42
60920;BME280;59039;52.108;19.942;2023-05-14T00:38:19;101270.86;;;12.52;58.05
60920;BME280;59039;52.108;19.942;2023-05-14T00:40:54;101266.96;;;12.49;57.71
60920;BME280;59039;52.108;19.942;2023-05-14T00:43:20;101265.05;;;12.44;58.35
60920;BME280;59039;52.108;19.942;2023-05-14T00:45:50;101263.36;;;12.41;58.40
60920;BME280;59039;52.108;19.942;2023-05-14T00:48:16;101263.98;;;12.39;58.66
60920;BME280;59039;52.108;19.942;2023-05-14T00:50:42;101261.88;;;12.36;58.50
60920;BME280;59039;52.108;19.942;2023-05-14T00:53:08;101257.83;;;12.35;58.32
60920;BME280;59039;52.108;19.942;2023-05-14T00:55:34;101257.69;;;12.34;58.24
60920;BME280;59039;52.108;19.942;2023-05-14T00:58:00;101255.95;;;12.33;59.07
60920;BME280;59039;52.108;19.942;2023-05-14T01:00:25;101257.63;;;12.32;58.95
60920;BME280;59039;52.108;19.942;2023-05-14T01:02:50;101260.63;;;12.30;60.62
60920;BME280;59039;52.108;19.942;2023-05-14T01:05:16;101255.50;;;12.24;59.53
60920;BME280;59039;52.108;19.942;2023-05-14T01:08:20;101257.65;;;12.21;59.98
60920;BME280;59039;52.108;19.942;2023-05-14T01:10:57;101260.03;;;12.17;62.16
60920;BME280;59039;52.108;19.942;2023-05-14T01:13:36;101258.11;;;12.14;61.98
60920;BME280;59039;52.108;19.942;2023-05-14T01:16:08;101260.27;;;12.10;62.64
60920;BME280;59039;52.108;19.942;2023-05-14T01:18:36;101256.71;;;12.08;63.77
60920;BME280;59039;52.108;19.942;2023-05-14T01:21:03;101253.38;;;12.04;62.28
60920;BME280;59039;52.108;19.942;2023-05-14T01:23:28;101255.36;;;12.03;61.64
60920;BME280;59039;52.108;19.942;2023-05-14T01:25:54;101254.20;;;12.00;62.06
60920;BME280;59039;52.108;19.942;2023-05-14T01:28:24;101254.92;;;11.98;62.70
60920;BME280;59039;52.108;19.942;2023-05-14T01:31:21;101259.15;;;11.95;63.85
60920;BME280;59039;52.108;19.942;2023-05-14T01:33:49;101261.98;;;11.92;62.26
60920;BME280;59039;52.108;19.942;2023-05-14T01:36:15;101261.61;;;11.88;61.51
60920;BME280;59039;52.108;19.942;2023-05-14T01:38:41;101262.64;;;11.87;60.75
60920;BME280;59039;52.108;19.942;2023-05-14T01:41:13;101263.48;;;11.82;59.81
60920;BME280;59039;52.108;19.942;2023-05-14T01:43:39;101262.62;;;11.71;59.41
60920;BME280;59039;52.108;19.942;2023-05-14T01:46:07;101259.90;;;11.60;59.98
60920;BME280;59039;52.108;19.942;2023-05-14T01:48:32;101254.09;;;11.51;60.10
60920;BME280;59039;52.108;19.942;2023-05-14T01:50:58;101255.48;;;11.46;59.75
60920;BME280;59039;52.108;19.942;2023-05-14T01:53:26;101254.36;;;11.40;60.87
60920;BME280;59039;52.108;19.942;2023-05-14T01:55:51;101254.17;;;11.36;59.94
60920;BME280;59039;52.108;19.942;2023-05-14T01:58:17;101244.61;;;11.26;60.69
60920;BME280;59039;52.108;19.942;2023-05-14T02:00:42;101238.58;;;11.20;59.68
60920;BME280;59039;52.108;19.942;2023-05-14T02:03:07;101232.92;;;11.13;61.21
60920;BME280;59039;52.108;19.942;2023-05-14T02:05:33;101237.20;;;11.10;61.18
60920;BME280;59039;52.108;19.942;2023-05-14T02:07:58;101232.23;;;11.08;61.02
60920;BME280;59039;52.108;19.942;2023-05-14T02:10:23;101228.63;;;11.06;60.68
60920;BME280;59039;52.108;19.942;2023-05-14T02:12:49;101233.98;;;11.05;60.25
60920;BME280;59039;52.108;19.942;2023-05-14T02:15:17;101235.39;;;11.03;60.06
60920;BME280;59039;52.108;19.942;2023-05-14T02:17:42;101231.16;;;11.02;59.94
60920;BME280;59039;52.108;19.942;2023-05-14T02:20:11;101228.45;;;10.98;59.63
60920;BME280;59039;52.108;19.942;2023-05-14T02:22:45;101228.89;;;10.93;59.58
60920;BME280;59039;52.108;19.942;2023-05-14T02:25:11;101227.21;;;10.87;59.88
60920;BME280;59039;52.108;19.942;2023-05-14T02:27:36;101227.14;;;10.84;60.05
60920;BME280;59039;52.108;19.942;2023-05-14T02:30:04;101225.96;;;10.83;60.39
60920;BME280;59039;52.108;19.942;2023-05-14T02:32:30;101223.53;;;10.82;60.26
60920;BME280;59039;52.108;19.942;2023-05-14T02:34:55;101219.19;;;10.79;60.05
60920;BME280;59039;52.108;19.942;2023-05-14T02:37:21;101219.29;;;10.76;59.78
60920;BME280;59039;52.108;19.942;2023-05-14T02:39:46;101213.23;;;10.72;60.19
60920;BME280;59039;52.108;19.942;2023-05-14T02:42:11;101216.57;;;10.69;60.76
60920;BME280;59039;52.108;19.942;2023-05-14T02:44:36;101218.03;;;10.68;60.65
60920;BME280;59039;52.108;19.942;2023-05-14T02:47:02;101220.80;;;10.68;60.69
60920;BME280;59039;52.108;19.942;2023-05-14T02:49:27;101220.90;;;10.66;60.96
60920;BME280;59039;52.108;19.942;2023-05-14T02:51:52;101216.42;;;10.66;61.10
60920;BME280;59039;52.108;19.942;2023-05-14T02:54:18;101217.45;;;10.67;61.11
60920;BME280;59039;52.108;19.942;2023-05-14T02:56:43;101219.23;;;10.67;61.21
60920;BME280;59039;52.108;19.942;2023-05-14T02:59:09;101221.54;;;10.68;61.23
60920;BME280;59039;52.108;19.942;2023-05-14T03:01:34;101223.64;;;10.64;60.73
60920;BME280;59039;52.108;19.942;2023-05-14T03:04:02;101221.24;;;10.59;61.81
60920;BME280;59039;52.108;19.942;2023-05-14T03:06:36;101224.84;;;10.57;62.47
60920;BME280;59039;52.108;19.942;2023-05-14T03:09:10;101222.84;;;10.55;62.92
60920;BME280;59039;52.108;19.942;2023-05-14T03:11:36;101218.63;;;10.55;63.69
60920;BME280;59039;52.108;19.942;2023-05-14T03:14:01;101217.83;;;10.56;63.66
60920;BME280;59039;52.108;19.942;2023-05-14T03:16:26;101215.16;;;10.58;64.29
60920;BME280;59039;52.108;19.942;2023-05-14T03:18:52;101216.01;;;10.58;63.71
60920;BME280;59039;52.108;19.942;2023-05-14T03:21:17;101207.82;;;10.59;63.72
60920;BME280;59039;52.108;19.942;2023-05-14T03:23:43;101209.31;;;10.58;64.53
60920;BME280;59039;52.108;19.942;2023-05-14T03:26:08;101204.25;;;10.58;65.14
60920;BME280;59039;52.108;19.942;2023-05-14T03:28:33;101204.80;;;10.58;65.59
60920;BME280;59039;52.108;19.942;2023-05-14T03:30:59;101203.39;;;10.58;65.37
60920;BME280;59039;52.108;19.942;2023-05-14T03:33:24;101199.90;;;10.58;63.18
60920;BME280;59039;52.108;19.942;2023-05-14T03:35:50;101196.40;;;10.57;64.07
60920;BME280;59039;52.108;19.942;2023-05-14T03:38:15;101198.83;;;10.58;63.72
60920;BME280;59039;52.108;19.942;2023-05-14T03:40:40;101196.27;;;10.60;64.79
60920;BME280;59039;52.108;19.942;2023-05-14T03:43:06;101196.95;;;10.64;64.58
60920;BME280;59039;52.108;19.942;2023-05-14T03:45:32;101192.48;;;10.72;64.91
60920;BME280;59039;52.108;19.942;2023-05-14T03:48:00;101186.59;;;10.79;65.49
60920;BME280;59039;52.108;19.942;2023-05-14T03:50:26;101186.35;;;10.90;65.01
60920;BME280;59039;52.108;19.942;2023-05-14T03:52:51;101181.89;;;11.01;65.70
60920;BME280;59039;52.108;19.942;2023-05-14T03:55:20;101183.80;;;11.10;65.51
60920;BME280;59039;52.108;19.942;2023-05-14T03:57:47;101183.72;;;11.15;64.58
60920;BME280;59039;52.108;19.942;2023-05-14T04:00:12;101183.36;;;11.23;63.84
60920;BME280;59039;52.108;19.942;2023-05-14T04:02:38;101185.73;;;11.35;62.84
60920;BME280;59039;52.108;19.942;2023-05-14T04:05:04;101188.64;;;11.46;62.34
60920;BME280;59039;52.108;19.942;2023-05-14T04:07:29;101186.03;;;11.57;61.99
60920;BME280;59039;52.108;19.942;2023-05-14T04:09:54;101186.04;;;11.69;62.00
60920;BME280;59039;52.108;19.942;2023-05-14T04:12:20;101185.79;;;11.83;61.53
60920;BME280;59039;52.108;19.942;2023-05-14T04:14:45;101180.09;;;11.94;61.43
60920;BME280;59039;52.108;19.942;2023-05-14T04:17:10;101176.69;;;12.03;61.12
60920;BME280;59039;52.108;19.942;2023-05-14T04:19:36;101176.73;;;12.14;60.84
60920;BME280;59039;52.108;19.942;2023-05-14T04:22:01;101178.63;;;12.24;60.58
60920;BME280;59039;52.108;19.942;2023-05-14T04:24:26;101180.02;;;12.37;60.51
60920;BME280;59039;52.108;19.942;2023-05-14T04:26:52;101179.44;;;12.46;60.33
60920;BME280;59039;52.108;19.942;2023-05-14T04:29:17;101184.89;;;12.61;60.03
60920;BME280;59039;52.108;19.942;2023-05-14T04:31:43;101184.31;;;12.77;59.61
60920;BME280;59039;52.108;19.942;2023-05-14T04:34:08;101187.64;;;12.94;59.42
60920;BME280;59039;52.108;19.942;2023-05-14T04:36:34;101185.04;;;13.13;59.00
60920;BME280;59039;52.108;19.942;2023-05-14T04:38:59;101182.80;;;13.23;58.74
60920;BME280;59039;52.108;19.942;2023-05-14T04:41:24;101184.52;;;13.41;58.79
60920;BME280;59039;52.108;19.942;2023-05-14T04:43:50;101183.88;;;13.56;58.42
60920;BME280;59039;52.108;19.942;2023-05-14T04:46:15;101181.08;;;13.66;58.14
60920;BME280;59039;52.108;19.942;2023-05-14T04:48:40;101179.84;;;13.76;57.69
60920;BME280;59039;52.108;19.942;2023-05-14T04:51:06;101180.86;;;13.88;57.35
60920;BME280;59039;52.108;19.942;2023-05-14T04:53:34;101176.56;;;13.99;57.34
60920;BME280;59039;52.108;19.942;2023-05-14T04:55:59;101178.02;;;14.12;57.21
60920;BME280;59039;52.108;19.942;2023-05-14T04:58:34;101173.29;;;14.20;56.82
60920;BME280;59039;52.108;19.942;2023-05-14T05:00:59;101171.18;;;14.27;56.57
60920;BME280;59039;52.108;19.942;2023-05-14T05:03:24;101172.09;;;14.32;56.75
60920;BME280;59039;52.108;19.942;2023-05-14T05:05:50;101172.73;;;14.34;56.66
60920;BME280;59039;52.108;19.942;2023-05-14T05:08:15;101172.58;;;14.39;56.36
60920;BME280;59039;52.108;19.942;2023-05-14T05:10:40;101171.17;;;14.47;56.14
60920;BME280;59039;52.108;19.942;2023-05-14T05:13:06;101176.20;;;14.59;55.91
60920;BME280;59039;52.108;19.942;2023-05-14T05:15:31;101177.02;;;14.79;55.61
60920;BME280;59039;52.108;19.942;2023-05-14T05:17:56;101182.48;;;14.93;55.58
60920;BME280;59039;52.108;19.942;2023-05-14T05:20:22;101183.67;;;15.14;55.05
60920;BME280;59039;52.108;19.942;2023-05-14T05:22:47;101181.20;;;15.25;54.86
60920;BME280;59039;52.108;19.942;2023-05-14T05:25:12;101179.10;;;15.36;54.62
60920;BME280;59039;52.108;19.942;2023-05-14T05:27:38;101175.67;;;15.54;54.53
60920;BME280;59039;52.108;19.942;2023-05-14T05:30:07;101170.64;;;15.71;54.26
60920;BME280;59039;52.108;19.942;2023-05-14T05:32:32;101176.70;;;15.94;54.17
60920;BME280;59039;52.108;19.942;2023-05-14T05:34:58;101171.55;;;16.12;53.70
60920;BME280;59039;52.108;19.942;2023-05-14T05:37:23;101173.73;;;16.25;53.33
60920;BME280;59039;52.108;19.942;2023-05-14T05:39:48;101168.57;;;16.37;52.70
60920;BME280;59039;52.108;19.942;2023-05-14T05:42:16;101165.86;;;16.48;52.91
60920;BME280;59039;52.108;19.942;2023-05-14T05:44:42;101164.76;;;16.62;53.10
60920;BME280;59039;52.108;19.942;2023-05-14T05:47:07;101164.05;;;16.82;52.19
60920;BME280;59039;52.108;19.942;2023-05-14T05:49:32;101165.41;;;16.98;51.76
60920;BME280;59039;52.108;19.942;2023-05-14T05:51:58;101164.02;;;17.15;51.80
60920;BME280;59039;52.108;19.942;2023-05-14T05:54:23;101165.39;;;17.27;51.08
60920;BME280;59039;52.108;19.942;2023-05-14T05:56:48;101162.77;;;17.38;50.46
60920;BME280;59039;52.108;19.942;2023-05-14T05:59:16;101157.92;;;17.53;49.90
60920;BME280;59039;52.108;19.942;2023-05-14T06:01:42;101160.52;;;17.68;49.47
60920;BME280;59039;52.108;19.942;2023-05-14T06:04:07;101159.15;;;17.84;49.77
60920;BME280;59039;52.108;19.942;2023-05-14T06:06:32;101158.42;;;17.96;49.48
60920;BME280;59039;52.108;19.942;2023-05-14T06:08:58;101156.42;;;18.05;49.45
60920;BME280;59039;52.108;19.942;2023-05-14T06:11:23;101153.38;;;18.26;49.32
60920;BME280;59039;52.108;19.942;2023-05-14T06:13:48;101146.69;;;18.48;48.54
60920;BME280;59039;52.108;19.942;2023-05-14T06:16:13;101147.21;;;18.64;48.36
60920;BME280;59039;52.108;19.942;2023-05-14T06:18:44;101146.03;;;18.84;48.12
60920;BME280;59039;52.108;19.942;2023-05-14T06:21:09;101148.38;;;19.01;48.49
60920;BME280;59039;52.108;19.942;2023-05-14T06:23:36;101146.81;;;19.19;48.27
60920;BME280;59039;52.108;19.942;2023-05-14T06:26:01;101149.15;;;19.34;47.90
60920;BME280;59039;52.108;19.942;2023-05-14T06:28:26;101146.98;;;19.50;47.21
60920;BME280;59039;52.108;19.942;2023-05-14T06:30:51;101145.58;;;19.62;46.25
60920;BME280;59039;52.108;19.942;2023-05-14T06:33:17;101142.30;;;19.73;46.90
60920;BME280;59039;52.108;19.942;2023-05-14T06:35:42;101144.85;;;19.82;46.21
60920;BME280;59039;52.108;19.942;2023-05-14T06:38:07;101141.88;;;19.88;46.16
60920;BME280;59039;52.108;19.942;2023-05-14T06:40:33;101139.02;;;20.03;46.66
60920;BME280;59039;52.108;19.942;2023-05-14T06:42:58;101142.52;;;20.27;46.82
60920;BME280;59039;52.108;19.942;2023-05-14T06:45:23;101139.66;;;20.52;45.88
60920;BME280;59039;52.108;19.942;2023-05-14T06:47:49;101139.77;;;20.75;45.79
60920;BME280;59039;52.108;19.942;2023-05-14T06:50:14;101133.46;;;20.91;45.03
60920;BME280;59039;52.108;19.942;2023-05-14T06:52:39;101132.27;;;21.07;45.06
60920;BME280;59039;52.108;19.942;2023-05-14T06:55:05;101131.86;;;21.27;43.65
60920;BME280;59039;52.108;19.942;2023-05-14T06:57:33;101133.45;;;21.34;43.18
60920;BME280;59039;52.108;19.942;2023-05-14T06:59:58;101130.27;;;21.44;42.93
60920;BME280;59039;52.108;19.942;2023-05-14T07:02:24;101126.52;;;21.50;41.71
60920;BME280;59039;52.108;19.942;2023-05-14T07:04:49;101130.21;;;21.59;42.24
60920;BME280;59039;52.108;19.942;2023-05-14T07:07:14;101130.23;;;21.66;41.59
60920;BME280;59039;52.108;19.942;2023-05-14T07:09:40;101125.77;;;21.76;41.24
60920;BME280;59039;52.108;19.942;2023-05-14T07:12:06;101121.79;;;21.80;41.20
60920;BME280;59039;52.108;19.942;2023-05-14T07:14:31;101115.27;;;21.86;39.64
60920;BME280;59039;52.108;19.942;2023-05-14T07:16:56;101116.16;;;21.92;39.80
60920;BME280;59039;52.108;19.942;2023-05-14T07:19:22;101114.71;;;21.96;39.79
60920;BME280;59039;52.108;19.942;2023-05-14T07:21:49;101116.21;;;21.96;39.67
60920;BME280;59039;52.108;19.942;2023-05-14T07:24:15;101110.15;;;21.99;39.16
60920;BME280;59039;52.108;19.942;2023-05-14T07:26:40;101106.07;;;22.04;38.49
60920;BME280;59039;52.108;19.942;2023-05-14T07:29:09;101105.04;;;22.14;38.78
60920;BME280;59039;52.108;19.942;2023-05-14T07:31:34;101102.63;;;22.22;37.97
60920;BME280;59039;52.108;19.942;2023-05-14T07:34:02;101099.00;;;22.21;38.41
60920;BME280;59039;52.108;19.942;2023-05-14T07:36:27;101101.25;;;22.27;37.40
60920;BME280;59039;52.108;19.942;2023-05-14T07:38:53;101094.36;;;22.32;37.92
60920;BME280;59039;52.108;19.942;2023-05-14T07:41:18;101091.35;;;22.42;37.72
60920;BME280;59039;52.108;19.942;2023-05-14T07:43:44;101089.83;;;22.51;37.02
60920;BME280;59039;52.108;19.942;2023-05-14T07:46:09;101085.55;;;22.55;35.99
60920;BME280;59039;52.108;19.942;2023-05-14T07:48:34;101084.25;;;22.48;36.51
60920;BME280;59039;52.108;19.942;2023-05-14T07:51:00;101078.16;;;22.50;36.74
60920;BME280;59039;52.108;19.942;2023-05-14T07:53:25;101074.15;;;22.61;36.49
60920;BME280;59039;52.108;19.942;2023-05-14T07:55:50;101065.14;;;22.66;35.39
60920;BME280;59039;52.108;19.942;2023-05-14T07:58:15;101062.63;;;22.77;36.21
60920;BME280;59039;52.108;19.942;2023-05-14T08:00:41;101060.77;;;22.85;35.30
60920;BME280;59039;52.108;19.942;2023-05-14T08:03:06;101056.46;;;22.92;34.98
60920;BME280;59039;52.108;19.942;2023-05-14T08:05:31;101057.60;;;22.93;35.38
60920;BME280;59039;52.108;19.942;2023-05-14T08:07:57;101058.61;;;23.04;34.91
60920;BME280;59039;52.108;19.942;2023-05-14T08:10:25;101048.25;;;23.17;34.47
60920;BME280;59039;52.108;19.942;2023-05-14T08:12:50;101044.16;;;23.30;32.43
60920;BME280;59039;52.108;19.942;2023-05-14T08:15:16;101045.86;;;23.41;30.36
60920;BME280;59039;52.108;19.942;2023-05-14T08:17:48;101038.33;;;23.39;30.26
60920;BME280;59039;52.108;19.942;2023-05-14T08:20:19;101043.14;;;23.41;29.11
60920;BME280;59039;52.108;19.942;2023-05-14T08:22:44;101042.46;;;23.34;29.09
60920;BME280;59039;52.108;19.942;2023-05-14T08:25:10;101038.39;;;23.38;29.20
60920;BME280;59039;52.108;19.942;2023-05-14T08:27:38;101042.41;;;23.41;29.22
60920;BME280;59039;52.108;19.942;2023-05-14T08:30:07;101038.32;;;23.33;28.97
60920;BME280;59039;52.108;19.942;2023-05-14T08:32:32;101035.60;;;23.26;28.76
60920;BME280;59039;52.108;19.942;2023-05-14T08:34:58;101038.73;;;23.16;28.93
60920;BME280;59039;52.108;19.942;2023-05-14T08:37:23;101033.12;;;23.14;28.82
60920;BME280;59039;52.108;19.942;2023-05-14T08:39:48;101034.24;;;23.04;28.60
60920;BME280;59039;52.108;19.942;2023-05-14T08:42:14;101034.92;;;22.95;28.85
60920;BME280;59039;52.108;19.942;2023-05-14T08:44:49;101030.07;;;22.90;28.73
60920;BME280;59039;52.108;19.942;2023-05-14T08:47:20;101034.71;;;22.81;28.87
60920;BME280;59039;52.108;19.942;2023-05-14T08:49:46;101033.20;;;22.77;28.71
60920;BME280;59039;52.108;19.942;2023-05-14T08:52:15;101029.93;;;22.65;28.58
60920;BME280;59039;52.108;19.942;2023-05-14T08:54:42;101030.38;;;22.60;28.83
60920;BME280;59039;52.108;19.942;2023-05-14T08:57:08;101040.58;;;22.58;28.60
60920;BME280;59039;52.108;19.942;2023-05-14T08:59:34;101036.01;;;22.49;28.44
60920;BME280;59039;52.108;19.942;2023-05-14T09:02:01;101039.28;;;22.37;28.35
60920;BME280;59039;52.108;19.942;2023-05-14T09:04:30;101037.84;;;22.22;28.75
60920;BME280;59039;52.108;19.942;2023-05-14T09:06:56;101042.09;;;22.15;28.80
60920;BME280;59039;52.108;19.942;2023-05-14T09:12:09;101036.32;;;21.98;29.50
60920;BME280;59039;52.108;19.942;2023-05-14T09:14:38;101042.49;;;21.98;29.65
60920;BME280;59039;52.108;19.942;2023-05-14T09:17:03;101038.29;;;21.93;29.83
60920;BME280;59039;52.108;19.942;2023-05-14T09:19:28;101038.13;;;21.89;30.09
60920;BME280;59039;52.108;19.942;2023-05-14T09:21:56;101036.26;;;21.80;30.44
60920;BME280;59039;52.108;19.942;2023-05-14T09:24:24;101029.07;;;21.75;30.87
60920;BME280;59039;52.108;19.942;2023-05-14T09:26:51;101025.83;;;21.73;30.88
60920;BME280;59039;52.108;19.942;2023-05-14T09:29:17;101027.45;;;21.74;30.89
60920;BME280;59039;52.108;19.942;2023-05-14T09:31:43;101021.11;;;21.77;30.83
60920;BME280;59039;52.108;19.942;2023-05-14T09:34:08;101028.25;;;21.81;30.77
60920;BME280;59039;52.108;19.942;2023-05-14T09:36:34;101023.66;;;21.80;30.48
60920;BME280;59039;52.108;19.942;2023-05-14T09:39:02;101019.15;;;21.77;31.02
60920;BME280;59039;52.108;19.942;2023-05-14T09:41:28;101016.08;;;21.78;31.12
60920;BME280;59039;52.108;19.942;2023-05-14T09:43:53;101017.87;;;21.84;30.88
60920;BME280;59039;52.108;19.942;2023-05-14T09:46:18;101018.63;;;21.87;30.34
60920;BME280;59039;52.108;19.942;2023-05-14T09:48:45;101013.56;;;21.84;30.62
60920;BME280;59039;52.108;19.942;2023-05-14T09:51:11;101008.79;;;21.85;30.62
60920;BME280;59039;52.108;19.942;2023-05-14T09:53:37;101005.47;;;21.84;30.59
60920;BME280;59039;52.108;19.942;2023-05-14T09:56:02;101003.45;;;21.82;30.81
60920;BME280;59039;52.108;19.942;2023-05-14T09:58:28;100999.42;;;21.84;30.10
60920;BME280;59039;52.108;19.942;2023-05-14T10:00:56;100998.41;;;21.80;29.77
60920;BME280;59039;52.108;19.942;2023-05-14T10:03:24;100994.77;;;21.75;30.05
60920;BME280;59039;52.108;19.942;2023-05-14T10:05:49;100996.63;;;21.76;30.34
60920;BME280;59039;52.108;19.942;2023-05-14T10:08:25;100989.27;;;21.77;29.89
60920;BME280;59039;52.108;19.942;2023-05-14T10:10:53;100991.41;;;21.76;29.65
60920;BME280;59039;52.108;19.942;2023-05-14T10:13:22;100981.69;;;21.76;29.89
60920;BME280;59039;52.108;19.942;2023-05-14T10:15:53;100981.45;;;21.75;29.89
60920;BME280;59039;52.108;19.942;2023-05-14T10:18:24;100975.83;;;21.73;29.26
60920;BME280;59039;52.108;19.942;2023-05-14T10:21:14;100975.79;;;21.72;29.16
60920;BME280;59039;52.108;19.942;2023-05-14T10:23:41;100976.30;;;21.71;29.39
60920;BME280;59039;52.108;19.942;2023-05-14T10:26:07;100970.30;;;21.73;29.09
60920;BME280;59039;52.108;19.942;2023-05-14T10:28:33;100962.20;;;21.70;29.07
60920;BME280;59039;52.108;19.942;2023-05-14T10:30:59;100960.09;;;21.65;28.96
60920;BME280;59039;52.108;19.942;2023-05-14T10:33:25;100952.52;;;21.59;29.03
60920;BME280;59039;52.108;19.942;2023-05-14T10:38:28;100945.55;;;21.54;29.14
60920;BME280;59039;52.108;19.942;2023-05-14T10:40:58;100941.64;;;21.49;29.03
60920;BME280;59039;52.108;19.942;2023-05-14T10:43:28;100935.89;;;21.47;28.87
60920;BME280;59039;52.108;19.942;2023-05-14T10:46:03;100930.32;;;21.45;29.26
60920;BME280;59039;52.108;19.942;2023-05-14T10:48:38;100929.09;;;21.45;29.47
60920;BME280;59039;52.108;19.942;2023-05-14T10:51:06;100925.34;;;21.49;29.29
60920;BME280;59039;52.108;19.942;2023-05-14T10:53:54;100930.86;;;21.50;29.14
60920;BME280;59039;52.108;19.942;2023-05-14T10:56:29;100926.79;;;21.49;28.87
60920;BME280;59039;52.108;19.942;2023-05-14T10:58:57;100917.09;;;21.46;29.29
60920;BME280;59039;52.108;19.942;2023-05-14T11:01:27;100912.50;;;21.47;29.64
60920;BME280;59039;52.108;19.942;2023-05-14T11:03:57;100911.22;;;21.51;28.94
60920;BME280;59039;52.108;19.942;2023-05-14T11:06:23;100904.40;;;21.50;28.37
60920;BME280;59039;52.108;19.942;2023-05-14T11:08:50;100881.70;;;21.46;28.77
60920;BME280;59039;52.108;19.942;2023-05-14T11:11:19;100878.07;;;21.48;28.73
60920;BME280;59039;52.108;19.942;2023-05-14T11:13:48;100873.30;;;21.48;28.66
60920;BME280;59039;52.108;19.942;2023-05-14T11:16:14;100875.30;;;21.46;28.40
60920;BME280;59039;52.108;19.942;2023-05-14T11:18:42;100871.60;;;21.40;28.38
60920;BME280;59039;52.108;19.942;2023-05-14T11:21:07;100871.85;;;21.36;28.79
60920;BME280;59039;52.108;19.942;2023-05-14T11:24:14;100864.11;;;21.35;29.08
60920;BME280;59039;52.108;19.942;2023-05-14T11:29:16;100864.00;;;21.40;29.57
60920;BME280;59039;52.108;19.942;2023-05-14T11:31:41;100858.84;;;21.42;29.66
60920;BME280;59039;52.108;19.942;2023-05-14T11:34:07;100863.19;;;21.45;29.36
60920;BME280;59039;52.108;19.942;2023-05-14T11:36:35;100862.08;;;21.46;29.52
60920;BME280;59039;52.108;19.942;2023-05-14T11:39:00;100856.20;;;21.49;29.30
60920;BME280;59039;52.108;19.942;2023-05-14T11:41:35;100846.50;;;21.50;29.43
60920;BME280;59039;52.108;19.942;2023-05-14T11:44:09;100851.05;;;21.53;29.58
60920;BME280;59039;52.108;19.942;2023-05-14T11:46:52;100848.03;;;21.53;29.90
60920;BME280;59039;52.108;19.942;2023-05-14T11:49:23;100847.37;;;21.59;30.17
60920;BME280;59039;52.108;19.942;2023-05-14T11:51:59;100844.71;;;21.65;30.21
60920;BME280;59039;52.108;19.942;2023-05-14T11:54:28;100839.41;;;21.71;30.28
60920;BME280;59039;52.108;19.942;2023-05-14T11:56:57;100837.73;;;21.77;30.33
60920;BME280;59039;52.108;19.942;2023-05-14T11:59:24;100833.97;;;21.81;30.22
60920;BME280;59039;52.108;19.942;2023-05-14T12:01:55;100830.27;;;21.86;30.31
60920;BME280;59039;52.108;19.942;2023-05-14T12:04:29;100824.86;;;21.90;30.19
60920;BME280;59039;52.108;19.942;2023-05-14T12:07:03;100827.48;;;21.95;30.21
60920;BME280;59039;52.108;19.942;2023-05-14T12:09:35;100824.83;;;21.98;30.06
60920;BME280;59039;52.108;19.942;2023-05-14T12:12:10;100825.34;;;22.00;30.03
60920;BME280;59039;52.108;19.942;2023-05-14T12:14:37;100823.41;;;22.00;30.10
60920;BME280;59039;52.108;19.942;2023-05-14T12:17:10;100817.14;;;22.03;30.39
60920;BME280;59039;52.108;19.942;2023-05-14T12:19:38;100818.45;;;22.08;30.46
60920;BME280;59039;52.108;19.942;2023-05-14T12:22:04;100816.47;;;22.09;29.52
60920;BME280;59039;52.108;19.942;2023-05-14T12:24:29;100811.59;;;22.07;29.09
60920;BME280;59039;52.108;19.942;2023-05-14T12:26:55;100806.23;;;22.06;29.50
60920;BME280;59039;52.108;19.942;2023-05-14T12:29:20;100799.15;;;22.07;29.47
60920;BME280;59039;52.108;19.942;2023-05-14T12:31:46;100800.40;;;22.10;29.13
60920;BME280;59039;52.108;19.942;2023-05-14T12:34:12;100802.33;;;22.10;29.24
60920;BME280;59039;52.108;19.942;2023-05-14T12:36:38;100802.77;;;22.09;29.25
60920;BME280;59039;52.108;19.942;2023-05-14T12:39:04;100798.88;;;22.09;28.87
60920;BME280;59039;52.108;19.942;2023-05-14T12:41:29;100796.17;;;22.08;29.07
60920;BME280;59039;52.108;19.942;2023-05-14T12:43:55;100790.30;;;22.07;29.47
60920;BME280;59039;52.108;19.942;2023-05-14T12:46:30;100788.05;;;22.10;29.43
60920;BME280;59039;52.108;19.942;2023-05-14T12:48:56;100788.09;;;22.11;29.29